createdAt,value
2023-05-19T00:00:23.215Z,996.13
2023-05-19T00:01:25.650Z,996.06
2023-05-19T00:02:24.747Z,996.13
2023-05-19T00:03:23.238Z,996.10
2023-05-19T00:04:23.200Z,996.11
2023-05-19T00:05:23.210Z,996.15
2023-05-19T00:06:23.341Z,996.13
2023-05-19T00:07:24.131Z,996.18
2023-05-19T00:08:23.634Z,996.14
2023-05-19T00:09:23.132Z,996.20
2023-05-19T00:10:23.154Z,996.13
2023-05-19T00:11:23.280Z,996.12
2023-05-19T00:12:23.128Z,996.13
2023-05-19T00:13:23.079Z,996.17
2023-05-19T00:14:23.810Z,996.12
2023-05-19T00:15:24.156Z,996.16
2023-05-19T00:16:23.196Z,996.15
2023-05-19T00:17:23.121Z,996.17
2023-05-19T00:18:23.053Z,996.14
2023-05-19T00:19:23.140Z,996.11
2023-05-19T00:20:24.374Z,996.12
2023-05-19T00:21:23.649Z,996.10
2023-05-19T00:22:22.986Z,996.13
2023-05-19T00:23:22.990Z,996.14
2023-05-19T00:24:22.989Z,996.12
2023-05-19T00:25:23.022Z,996.09
2023-05-19T00:26:22.989Z,996.04
2023-05-19T00:27:23.689Z,996.07
2023-05-19T00:28:22.980Z,996.03
2023-05-19T00:29:22.928Z,996.04
2023-05-19T00:30:22.970Z,996.05
2023-05-19T00:31:22.981Z,996.03
2023-05-19T00:32:22.916Z,996.01
2023-05-19T00:33:24.137Z,996.01
2023-05-19T00:34:23.670Z,995.98
2023-05-19T00:35:22.849Z,995.95
2023-05-19T00:36:22.851Z,995.93
2023-05-19T00:37:22.837Z,995.94
2023-05-19T00:38:22.934Z,995.97
2023-05-19T00:39:22.898Z,995.94
2023-05-19T00:40:22.839Z,995.93
2023-05-19T00:41:22.806Z,995.94
2023-05-19T00:42:22.790Z,995.96
2023-05-19T00:43:23.289Z,995.94
2023-05-19T00:44:22.800Z,995.94
2023-05-19T00:45:22.744Z,995.92
2023-05-19T00:46:24.165Z,995.91
2023-05-19T00:47:22.905Z,995.87
2023-05-19T00:48:22.728Z,995.90
2023-05-19T00:49:22.707Z,995.90
2023-05-19T00:50:22.716Z,995.87
2023-05-19T00:51:22.695Z,995.86
2023-05-19T00:52:23.669Z,995.87
2023-05-19T00:53:22.682Z,995.86
2023-05-19T00:54:22.708Z,995.82
2023-05-19T00:55:22.708Z,995.86
2023-05-19T00:56:22.682Z,995.85
2023-05-19T00:57:22.657Z,995.86
2023-05-19T00:58:22.625Z,995.84
2023-05-19T00:59:23.757Z,995.84
2023-05-19T01:00:23.157Z,995.84
2023-05-19T01:01:22.647Z,995.84
2023-05-19T01:02:22.665Z,995.84
2023-05-19T01:03:22.680Z,995.83
2023-05-19T01:04:22.545Z,995.87
2023-05-19T01:05:23.148Z,995.88
2023-05-19T01:06:22.530Z,995.83
2023-05-19T01:07:22.540Z,995.86
2023-05-19T01:08:22.567Z,995.92
2023-05-19T01:09:22.536Z,995.89
2023-05-19T01:10:22.496Z,995.90
2023-05-19T01:11:22.480Z,995.83
2023-05-19T01:12:23.649Z,995.88
2023-05-19T01:13:22.466Z,995.89
2023-05-19T01:14:22.444Z,995.88
2023-05-19T01:15:22.435Z,995.95
2023-05-19T01:16:22.548Z,995.94
2023-05-19T01:17:22.483Z,995.93
2023-05-19T01:18:23.159Z,995.96
2023-05-19T01:19:22.515Z,995.89
2023-05-19T01:20:22.397Z,995.88
2023-05-19T01:21:23.187Z,995.93
2023-05-19T01:22:22.410Z,995.90
2023-05-19T01:23:22.361Z,995.93
2023-05-19T01:24:22.348Z,995.91
2023-05-19T01:25:23.241Z,995.92
2023-05-19T01:26:22.337Z,995.93
2023-05-19T01:27:22.317Z,995.91
2023-05-19T01:28:22.299Z,995.92
2023-05-19T01:29:22.317Z,995.93
2023-05-19T01:30:22.319Z,995.98
2023-05-19T01:31:22.406Z,995.95
2023-05-19T01:32:22.339Z,995.97
2023-05-19T01:33:22.252Z,995.94
2023-05-19T01:34:24.696Z,995.95
2023-05-19T01:35:22.343Z,995.98
2023-05-19T01:36:22.241Z,995.98
2023-05-19T01:37:22.230Z,995.95
2023-05-19T01:38:22.265Z,996.00
2023-05-19T01:39:22.182Z,996.01
2023-05-19T01:40:22.207Z,996.00
2023-05-19T01:41:22.187Z,996.05
2023-05-19T01:42:22.193Z,996.04
2023-05-19T01:43:22.182Z,996.00
2023-05-19T01:44:22.155Z,995.94
2023-05-19T01:45:22.148Z,995.95
2023-05-19T01:46:22.220Z,995.94
2023-05-19T01:47:24.287Z,995.97
2023-05-19T01:48:25.195Z,995.93
2023-05-19T01:49:22.148Z,995.94
2023-05-19T01:50:22.171Z,995.94
2023-05-19T01:51:22.140Z,995.94
2023-05-19T01:52:22.042Z,995.88
2023-05-19T01:53:22.066Z,995.90
2023-05-19T01:54:22.064Z,995.90
2023-05-19T01:55:22.027Z,995.92
2023-05-19T01:56:21.997Z,995.88
2023-05-19T01:57:22.015Z,995.93
2023-05-19T01:58:21.996Z,995.92
2023-05-19T01:59:21.987Z,995.91
2023-05-19T02:00:24.176Z,995.87
2023-05-19T02:01:22.014Z,995.91
2023-05-19T02:02:21.958Z,995.82
2023-05-19T02:03:21.967Z,995.82
2023-05-19T02:04:21.923Z,995.82
2023-05-19T02:05:22.018Z,995.85
2023-05-19T02:06:21.981Z,995.84
2023-05-19T02:07:22.807Z,995.84
2023-05-19T02:08:21.896Z,995.90
2023-05-19T02:09:21.878Z,995.85
2023-05-19T02:10:21.869Z,995.88
2023-05-19T02:11:21.860Z,995.85
2023-05-19T02:12:21.865Z,995.88
2023-05-19T02:13:24.180Z,995.89
2023-05-19T02:14:21.837Z,995.87
2023-05-19T02:15:21.801Z,995.87
2023-05-19T02:16:21.944Z,995.89
2023-05-19T02:17:21.815Z,995.81
2023-05-19T02:18:24.174Z,995.80
2023-05-19T02:19:21.869Z,995.83
2023-05-19T02:20:21.770Z,995.85
2023-05-19T02:21:21.754Z,995.80
2023-05-19T02:22:21.762Z,995.83
2023-05-19T02:23:21.782Z,995.77
2023-05-19T02:24:21.702Z,995.80
2023-05-19T02:25:21.694Z,995.82
2023-05-19T02:26:23.342Z,995.77
2023-05-19T02:27:21.698Z,995.80
2023-05-19T02:28:21.656Z,995.84
2023-05-19T02:29:21.672Z,995.80
2023-05-19T02:30:21.636Z,995.82
2023-05-19T02:31:23.719Z,995.83
2023-05-19T02:32:21.736Z,995.84
2023-05-19T02:33:21.648Z,995.81
2023-05-19T02:34:21.598Z,995.80
2023-05-19T02:35:21.613Z,995.80
2023-05-19T02:36:21.631Z,995.80
2023-05-19T02:37:21.584Z,995.75
2023-05-19T02:38:21.643Z,995.76
2023-05-19T02:39:22.872Z,995.74
2023-05-19T02:40:21.593Z,995.77
2023-05-19T02:41:21.567Z,995.73
2023-05-19T02:42:21.528Z,995.72
2023-05-19T02:43:21.518Z,995.68
2023-05-19T02:44:23.738Z,995.70
2023-05-19T02:45:23.269Z,995.69
2023-05-19T02:46:21.537Z,995.73
2023-05-19T02:47:21.537Z,995.72
2023-05-19T02:48:21.474Z,995.69
2023-05-19T02:49:21.496Z,995.74
2023-05-19T02:50:21.456Z,995.70
2023-05-19T02:51:21.420Z,995.73
2023-05-19T02:52:23.175Z,995.76
2023-05-19T02:53:21.432Z,995.74
2023-05-19T02:54:21.396Z,995.75
2023-05-19T02:55:21.527Z,995.78
2023-05-19T02:56:21.362Z,995.74
2023-05-19T02:57:23.179Z,995.74
2023-05-19T02:58:22.271Z,995.78
2023-05-19T02:59:21.720Z,995.74
2023-05-19T03:00:21.339Z,995.84
2023-05-19T03:01:21.356Z,995.78
2023-05-19T03:02:21.401Z,995.79
2023-05-19T03:03:21.360Z,995.78
2023-05-19T03:04:21.304Z,995.77
2023-05-19T03:05:23.180Z,995.80
2023-05-19T03:06:21.273Z,995.82
2023-05-19T03:07:21.269Z,995.78
2023-05-19T03:08:21.272Z,995.79
2023-05-19T03:09:21.261Z,995.79
2023-05-19T03:10:22.724Z,995.75
2023-05-19T03:11:22.192Z,995.79
2023-05-19T03:12:21.236Z,995.78
2023-05-19T03:13:21.208Z,995.79
2023-05-19T03:14:21.188Z,995.81
2023-05-19T03:15:21.176Z,995.79
2023-05-19T03:16:21.264Z,995.81
2023-05-19T03:17:21.316Z,995.85
2023-05-19T03:18:22.334Z,995.80
2023-05-19T03:19:21.270Z,995.81
2023-05-19T03:20:21.131Z,995.82
2023-05-19T03:21:21.124Z,995.83
2023-05-19T03:22:21.118Z,995.81
2023-05-19T03:23:22.819Z,995.79
2023-05-19T03:24:21.820Z,995.77
2023-05-19T03:25:21.101Z,995.80
2023-05-19T03:26:21.082Z,995.78
2023-05-19T03:27:21.068Z,995.78
2023-05-19T03:28:21.086Z,995.78
2023-05-19T03:29:21.088Z,995.78
2023-05-19T03:30:21.110Z,995.80
2023-05-19T03:31:21.695Z,995.79
2023-05-19T03:32:21.202Z,995.85
2023-05-19T03:33:21.111Z,995.80
2023-05-19T03:34:20.989Z,995.83
2023-05-19T03:35:20.991Z,995.78
2023-05-19T03:36:22.709Z,995.81
2023-05-19T03:37:21.705Z,995.82
2023-05-19T03:38:20.930Z,995.81
2023-05-19T03:39:20.921Z,995.85
2023-05-19T03:40:20.946Z,995.80
2023-05-19T03:41:20.919Z,995.85
2023-05-19T03:42:21.729Z,995.83
2023-05-19T03:43:20.884Z,995.78
2023-05-19T03:44:20.894Z,995.84
2023-05-19T03:45:20.908Z,995.82
2023-05-19T03:46:21.052Z,995.84
2023-05-19T03:47:20.880Z,995.83
2023-05-19T03:48:21.451Z,995.86
2023-05-19T03:49:22.727Z,995.87
2023-05-19T03:50:21.744Z,995.83
2023-05-19T03:51:20.871Z,995.85
2023-05-19T03:52:20.781Z,995.84
2023-05-19T03:53:20.803Z,995.84
2023-05-19T03:54:20.783Z,995.84
2023-05-19T03:55:21.703Z,995.89
2023-05-19T03:56:20.777Z,995.87
2023-05-19T03:57:20.719Z,995.89
2023-05-19T03:58:20.858Z,995.89
2023-05-19T03:59:20.745Z,995.96
2023-05-19T04:00:20.722Z,995.90
2023-05-19T04:01:20.701Z,995.96
2023-05-19T04:02:22.293Z,995.93
2023-05-19T04:03:21.411Z,995.98
2023-05-19T04:04:20.737Z,995.99
2023-05-19T04:05:20.663Z,995.99
2023-05-19T04:06:20.636Z,995.98
2023-05-19T04:07:20.652Z,995.98
2023-05-19T04:08:21.317Z,996.03
2023-05-19T04:09:20.623Z,995.99
2023-05-19T04:10:20.620Z,996.05
2023-05-19T04:11:20.639Z,996.04
2023-05-19T04:12:21.228Z,996.07
2023-05-19T04:13:20.582Z,996.04
2023-05-19T04:14:20.589Z,996.05
2023-05-19T04:15:22.203Z,996.05
2023-05-19T04:16:21.303Z,996.04
2023-05-19T04:17:20.515Z,996.04
2023-05-19T04:18:20.519Z,996.06
2023-05-19T04:19:20.554Z,996.05
2023-05-19T04:20:20.517Z,996.04
2023-05-19T04:21:21.204Z,996.04
2023-05-19T04:22:20.477Z,996.08
2023-05-19T04:23:20.474Z,996.03
2023-05-19T04:24:20.447Z,996.10
2023-05-19T04:25:20.454Z,996.09
2023-05-19T04:26:20.428Z,996.11
2023-05-19T04:27:20.423Z,996.14
2023-05-19T04:28:20.476Z,996.15
2023-05-19T04:29:21.240Z,996.09
2023-05-19T04:30:20.390Z,996.08
2023-05-19T04:31:20.492Z,996.06
2023-05-19T04:32:20.354Z,996.09
2023-05-19T04:33:20.385Z,996.06
2023-05-19T04:34:21.215Z,996.08
2023-05-19T04:35:20.327Z,996.13
2023-05-19T04:36:20.320Z,996.10
2023-05-19T04:38:37.968Z,996.12
2023-05-19T04:39:37.945Z,996.10
2023-05-19T04:40:38.011Z,996.10
2023-05-19T04:41:37.921Z,996.14
2023-05-19T04:42:37.928Z,996.15
2023-05-19T04:43:37.917Z,996.13
2023-05-19T04:44:37.888Z,996.15
2023-05-19T04:45:37.899Z,996.12
2023-05-19T04:46:37.930Z,996.15
2023-05-19T04:47:37.892Z,996.16
2023-05-19T04:48:37.849Z,996.14
2023-05-19T04:49:37.843Z,996.12
2023-05-19T04:50:37.826Z,996.16
2023-05-19T04:51:37.882Z,996.14
2023-05-19T04:52:37.832Z,996.16
2023-05-19T04:53:37.798Z,996.13
2023-05-19T04:54:37.796Z,996.10
2023-05-19T04:55:37.773Z,996.12
2023-05-19T04:56:37.797Z,996.11
2023-05-19T04:57:37.758Z,996.09
2023-05-19T04:58:38.716Z,996.11
2023-05-19T04:59:37.742Z,996.07
2023-05-19T05:00:37.722Z,996.09
2023-05-19T05:01:37.814Z,996.08
2023-05-19T05:02:37.768Z,996.11
2023-05-19T05:03:37.760Z,996.11
2023-05-19T05:04:37.692Z,996.12
2023-05-19T05:05:38.379Z,996.10
2023-05-19T05:06:37.710Z,996.07
2023-05-19T05:07:37.715Z,996.07
2023-05-19T05:08:37.658Z,996.07
2023-05-19T05:09:37.644Z,996.09
2023-05-19T05:10:37.671Z,996.07
2023-05-19T05:11:37.640Z,996.13
2023-05-19T05:12:38.383Z,996.08
2023-05-19T05:13:38.391Z,996.06
2023-05-19T05:14:37.669Z,996.09
2023-05-19T05:15:37.592Z,996.10
2023-05-19T05:16:37.646Z,996.11
2023-05-19T05:17:37.731Z,996.10
2023-05-19T05:18:38.382Z,996.10
2023-05-19T05:19:37.527Z,996.05
2023-05-19T05:20:37.612Z,996.13
2023-05-19T05:21:37.508Z,996.07
2023-05-19T05:22:37.525Z,996.09
2023-05-19T05:23:38.373Z,996.13
2023-05-19T05:24:37.485Z,996.10
2023-05-19T05:25:38.967Z,996.10
2023-05-19T05:26:38.472Z,996.06
2023-05-19T05:27:37.496Z,996.08
2023-05-19T05:28:37.453Z,996.08
2023-05-19T05:29:37.452Z,996.04
2023-05-19T05:30:37.425Z,996.05
2023-05-19T05:31:38.389Z,996.08
2023-05-19T05:32:37.498Z,996.03
2023-05-19T05:33:37.469Z,996.06
2023-05-19T05:34:37.394Z,996.06
2023-05-19T05:35:37.375Z,996.05
2023-05-19T05:36:37.373Z,996.08
2023-05-19T05:37:37.361Z,996.10
2023-05-19T05:38:38.887Z,996.08
2023-05-19T05:39:37.903Z,996.10
2023-05-19T05:40:37.322Z,996.12
2023-05-19T05:41:37.418Z,996.11
2023-05-19T05:42:37.336Z,996.10
2023-05-19T05:43:37.327Z,996.07
2023-05-19T05:44:37.899Z,996.08
2023-05-19T05:45:37.340Z,996.08
2023-05-19T05:46:37.303Z,996.12
2023-05-19T05:47:37.267Z,996.09
2023-05-19T05:48:37.242Z,996.05
2023-05-19T05:49:37.222Z,996.07
2023-05-19T05:50:37.204Z,996.04
2023-05-19T05:51:37.949Z,996.05
2023-05-19T05:52:37.892Z,996.02
2023-05-19T05:53:37.215Z,996.03
2023-05-19T05:54:37.206Z,996.02
2023-05-19T05:55:37.160Z,996.06
2023-05-19T05:56:37.150Z,996.07
2023-05-19T05:57:37.905Z,996.06
2023-05-19T05:58:37.474Z,996.02
2023-05-19T05:59:37.107Z,996.07
2023-05-19T06:00:37.096Z,996.06
2023-05-19T06:01:37.135Z,996.03
2023-05-19T06:02:37.403Z,996.04
2023-05-19T06:03:37.165Z,996.05
2023-05-19T06:04:37.122Z,996.05
2023-05-19T06:05:38.013Z,996.05
2023-05-19T06:06:37.040Z,996.01
2023-05-19T06:07:37.074Z,996.00
2023-05-19T06:08:37.014Z,995.98
2023-05-19T06:09:37.012Z,996.01
2023-05-19T06:10:37.925Z,995.97
2023-05-19T06:11:37.013Z,996.01
2023-05-19T06:12:36.998Z,995.94
2023-05-19T06:13:37.936Z,995.97
2023-05-19T06:14:36.964Z,996.01
2023-05-19T06:15:36.978Z,996.02
2023-05-19T06:16:36.996Z,995.96
2023-05-19T06:17:36.976Z,995.97
2023-05-19T06:18:36.983Z,995.98
2023-05-19T06:19:36.909Z,995.94
2023-05-19T06:20:36.940Z,995.92
2023-05-19T06:21:36.915Z,995.91
2023-05-19T06:22:36.864Z,995.93
2023-05-19T06:23:37.412Z,995.96
2023-05-19T06:24:38.751Z,995.95
2023-05-19T06:25:36.854Z,995.91
2023-05-19T06:26:39.432Z,995.89
2023-05-19T06:27:36.875Z,995.88
2023-05-19T06:28:36.816Z,995.91
2023-05-19T06:29:37.018Z,995.89
2023-05-19T06:30:36.829Z,995.90
2023-05-19T06:31:36.909Z,995.91
2023-05-19T06:32:36.805Z,995.90
2023-05-19T06:33:36.806Z,995.92
2023-05-19T06:34:37.449Z,995.92
2023-05-19T06:35:36.753Z,995.91
2023-05-19T06:36:37.422Z,995.92
2023-05-19T06:37:36.737Z,995.94
2023-05-19T06:38:36.701Z,995.97
2023-05-19T06:39:39.058Z,995.93
2023-05-19T06:40:36.729Z,995.94
2023-05-19T06:41:36.695Z,995.96
2023-05-19T06:42:36.659Z,995.95
2023-05-19T06:43:36.655Z,995.98
2023-05-19T06:44:39.442Z,995.97
2023-05-19T06:45:36.665Z,995.95
2023-05-19T06:46:36.667Z,995.97
2023-05-19T06:47:36.644Z,995.97
2023-05-19T06:48:36.635Z,995.92
2023-05-19T06:49:36.736Z,995.87
2023-05-19T06:50:36.592Z,995.89
2023-05-19T06:51:36.577Z,995.89
2023-05-19T06:52:38.922Z,995.90
2023-05-19T06:53:36.568Z,995.89
2023-05-19T06:54:36.608Z,995.86
2023-05-19T06:55:43.883Z,995.94
2023-05-19T06:56:37.561Z,995.89
2023-05-19T06:57:38.567Z,995.93
2023-05-19T06:58:38.033Z,995.86
2023-05-19T06:59:36.518Z,995.83
2023-05-19T07:00:36.578Z,995.88
2023-05-19T07:01:36.487Z,995.92
2023-05-19T07:02:36.629Z,995.90
2023-05-19T07:03:36.514Z,995.87
2023-05-19T07:04:36.454Z,995.92
2023-05-19T07:05:38.918Z,995.87
2023-05-19T07:06:36.444Z,995.92
2023-05-19T07:07:36.439Z,995.86
2023-05-19T07:08:36.388Z,995.92
2023-05-19T07:09:36.410Z,995.89
2023-05-19T07:10:38.925Z,995.86
2023-05-19T07:11:37.932Z,995.82
2023-05-19T07:12:36.359Z,995.88
2023-05-19T07:13:36.372Z,995.85
2023-05-19T07:14:36.401Z,995.86
2023-05-19T07:15:36.347Z,995.92
2023-05-19T07:16:36.389Z,995.88
2023-05-19T07:17:36.310Z,995.85
2023-05-19T07:18:38.447Z,995.85
2023-05-19T07:19:36.283Z,995.85
2023-05-19T07:20:36.310Z,995.84
2023-05-19T07:21:36.257Z,995.86
2023-05-19T07:22:36.241Z,995.83
2023-05-19T07:23:36.344Z,995.89
2023-05-19T07:24:37.594Z,995.83
2023-05-19T07:25:36.217Z,995.83
2023-05-19T07:26:36.210Z,995.84
2023-05-19T07:27:36.206Z,995.81
2023-05-19T07:28:36.217Z,995.85
2023-05-19T07:29:36.179Z,995.82
2023-05-19T07:30:36.179Z,995.77
2023-05-19T07:31:38.158Z,995.76
2023-05-19T07:32:36.222Z,995.83
2023-05-19T07:33:36.152Z,995.80
2023-05-19T07:34:36.122Z,995.78
2023-05-19T07:35:36.113Z,995.79
2023-05-19T07:36:38.425Z,995.82
2023-05-19T07:37:37.429Z,995.78
2023-05-19T07:38:36.131Z,995.80
2023-05-19T07:39:36.073Z,995.77
2023-05-19T07:40:36.072Z,995.75
2023-05-19T07:41:36.591Z,995.73
2023-05-19T07:42:36.136Z,995.74
2023-05-19T07:43:36.082Z,995.73
2023-05-19T07:44:37.016Z,995.72
2023-05-19T07:45:36.026Z,995.71
2023-05-19T07:46:36.082Z,995.68
2023-05-19T07:47:36.026Z,995.74
2023-05-19T07:48:35.994Z,995.73
2023-05-19T07:49:37.954Z,995.74
2023-05-19T07:50:37.434Z,995.74
2023-05-19T07:51:36.150Z,995.70
2023-05-19T07:52:35.943Z,995.67
2023-05-19T07:53:35.921Z,995.70
2023-05-19T07:54:35.963Z,995.71
2023-05-19T07:55:37.432Z,995.68
2023-05-19T07:56:36.012Z,995.73
2023-05-19T07:57:35.980Z,995.74
2023-05-19T07:58:35.871Z,995.70
2023-05-19T07:59:35.943Z,995.72
2023-05-19T08:00:35.976Z,995.62
2023-05-19T08:01:35.852Z,995.71
2023-05-19T08:02:37.533Z,995.67
2023-05-19T08:03:37.102Z,995.69
2023-05-19T08:04:35.914Z,995.63
2023-05-19T08:05:35.810Z,995.64
2023-05-19T08:06:35.819Z,995.63
2023-05-19T08:07:35.774Z,995.61
2023-05-19T08:08:36.998Z,995.60
2023-05-19T08:09:36.432Z,995.62
2023-05-19T08:10:35.861Z,995.60
2023-05-19T08:11:35.742Z,995.59
2023-05-19T08:12:35.735Z,995.62
2023-05-19T08:13:35.712Z,995.62
2023-05-19T08:14:35.705Z,995.60
2023-05-19T08:15:35.740Z,995.64
2023-05-19T08:16:36.950Z,995.56
2023-05-19T08:17:35.732Z,995.59
2023-05-19T08:18:35.667Z,995.63
2023-05-19T08:19:35.651Z,995.59
2023-05-19T08:20:35.870Z,995.58
2023-05-19T08:21:36.987Z,995.61
2023-05-19T08:22:36.440Z,995.62
2023-05-19T08:23:35.599Z,995.61
2023-05-19T08:24:35.631Z,995.65
2023-05-19T08:25:35.639Z,995.55
2023-05-19T08:26:37.648Z,995.52
2023-05-19T08:27:35.578Z,995.57
2023-05-19T08:28:37.574Z,995.52
2023-05-19T08:29:36.449Z,995.53
2023-05-19T08:30:35.535Z,995.56
2023-05-19T08:31:35.562Z,995.58
2023-05-19T08:32:35.555Z,995.58
2023-05-19T08:33:35.584Z,995.60
2023-05-19T08:34:36.556Z,995.56
2023-05-19T08:35:35.565Z,995.57
2023-05-19T08:36:35.464Z,995.56
2023-05-19T08:37:35.468Z,995.52
2023-05-19T08:38:35.501Z,995.50
2023-05-19T08:39:35.459Z,995.54
2023-05-19T08:40:35.582Z,995.53
2023-05-19T08:41:36.575Z,995.51
2023-05-19T08:42:36.452Z,995.50
2023-05-19T08:43:35.398Z,995.50
2023-05-19T08:44:35.394Z,995.52
2023-05-19T08:45:35.533Z,995.44
2023-05-19T08:46:35.415Z,995.44
2023-05-19T08:47:36.524Z,995.42
2023-05-19T08:48:35.393Z,995.46
2023-05-19T08:49:35.326Z,995.49
2023-05-19T08:50:35.463Z,995.44
2023-05-19T08:51:35.328Z,995.36
2023-05-19T08:52:35.299Z,995.34
2023-05-19T08:53:35.306Z,995.35
2023-05-19T08:54:35.286Z,995.36
2023-05-19T08:55:36.035Z,995.32
2023-05-19T08:56:35.255Z,995.28
2023-05-19T08:57:35.321Z,995.33
2023-05-19T08:58:35.240Z,995.29
2023-05-19T08:59:35.299Z,995.32
2023-05-19T09:00:37.067Z,995.29
2023-05-19T09:02:35.259Z,995.27
2023-05-19T09:03:35.225Z,995.30
2023-05-19T09:04:35.268Z,995.27
2023-05-19T09:05:35.505Z,995.30
2023-05-19T09:06:35.240Z,995.24
2023-05-19T09:07:36.071Z,995.27
2023-05-19T09:08:35.187Z,995.22
2023-05-19T09:09:35.110Z,995.24
2023-05-19T09:10:35.124Z,995.17
2023-05-19T09:11:35.116Z,995.14
2023-05-19T09:12:35.088Z,995.14
2023-05-19T09:13:35.992Z,995.05
2023-05-19T09:14:35.066Z,995.18
2023-05-19T09:15:35.272Z,995.11
2023-05-19T09:16:35.101Z,995.12
2023-05-19T09:17:35.071Z,995.11
2023-05-19T09:18:35.044Z,995.12
2023-05-19T09:19:35.106Z,995.16
2023-05-19T09:20:35.010Z,995.12
2023-05-19T09:21:35.055Z,995.17
2023-05-19T09:22:34.970Z,995.12
2023-05-19T09:23:34.975Z,995.16
2023-05-19T09:24:34.986Z,995.08
2023-05-19T09:25:35.233Z,995.17
2023-05-19T09:26:35.538Z,995.09
2023-05-19T09:27:34.901Z,995.08
2023-05-19T09:28:34.912Z,995.13
2023-05-19T09:29:34.911Z,995.03
2023-05-19T09:30:34.913Z,995.00
2023-05-19T09:31:35.537Z,995.01
2023-05-19T09:32:34.937Z,994.93
2023-05-19T09:33:34.873Z,994.96
2023-05-19T09:34:34.840Z,994.98
2023-05-19T09:35:35.193Z,994.95
2023-05-19T09:36:34.853Z,994.97
2023-05-19T09:37:34.824Z,994.95
2023-05-19T09:38:34.794Z,994.94
2023-05-19T09:39:35.469Z,994.93
2023-05-19T09:40:34.791Z,994.90
2023-05-19T09:41:34.761Z,994.87
2023-05-19T09:42:34.794Z,994.89
2023-05-19T09:43:34.786Z,994.90
2023-05-19T09:44:34.757Z,994.93
2023-05-19T09:45:34.955Z,994.94
2023-05-19T09:46:34.887Z,994.93
2023-05-19T09:47:34.769Z,994.92
2023-05-19T09:48:37.083Z,994.95
2023-05-19T09:49:34.700Z,994.94
2023-05-19T09:50:34.677Z,994.97
2023-05-19T09:51:34.654Z,994.96
2023-05-19T09:52:35.480Z,994.97
2023-05-19T09:53:34.657Z,994.91
2023-05-19T09:54:34.649Z,994.90
2023-05-19T09:55:34.814Z,994.95
2023-05-19T09:56:34.620Z,994.83
2023-05-19T09:57:34.616Z,994.88
2023-05-19T09:58:34.618Z,994.84
2023-05-19T09:59:34.593Z,994.87
2023-05-19T10:00:34.954Z,994.87
2023-05-19T10:01:36.065Z,994.84
2023-05-19T10:02:34.574Z,994.83
2023-05-19T10:03:34.613Z,994.74
2023-05-19T10:04:34.640Z,994.80
2023-05-19T10:05:35.864Z,994.77
2023-05-19T10:06:34.506Z,994.77
2023-05-19T10:07:34.485Z,994.71
2023-05-19T10:08:34.511Z,994.74
2023-05-19T10:09:34.476Z,994.73
2023-05-19T10:10:34.464Z,994.71
2023-05-19T10:11:34.464Z,994.72
2023-05-19T10:12:34.450Z,994.77
2023-05-19T10:13:34.438Z,994.75
2023-05-19T10:14:35.555Z,994.74
2023-05-19T10:15:40.846Z,994.69
2023-05-19T10:16:35.441Z,994.72
2023-05-19T10:17:34.436Z,994.70
2023-05-19T10:18:34.436Z,994.70
2023-05-19T10:19:34.442Z,994.68
2023-05-19T10:20:34.816Z,994.66
2023-05-19T10:21:34.335Z,994.69
2023-05-19T10:22:34.359Z,994.62
2023-05-19T10:23:34.350Z,994.75
2023-05-19T10:24:34.310Z,994.68
2023-05-19T10:25:34.475Z,994.66
2023-05-19T10:26:34.288Z,994.59
2023-05-19T10:27:36.014Z,994.54
2023-05-19T10:28:34.297Z,994.61
2023-05-19T10:29:34.313Z,994.64
2023-05-19T10:30:34.259Z,994.60
2023-05-19T10:31:34.353Z,994.58
2023-05-19T10:32:34.366Z,994.57
2023-05-19T10:33:34.227Z,994.50
2023-05-19T10:34:35.513Z,994.49
2023-05-19T10:35:34.422Z,994.45
2023-05-19T10:36:34.297Z,994.50
2023-05-19T10:37:34.168Z,994.50
2023-05-19T10:38:34.185Z,994.50
2023-05-19T10:39:34.146Z,994.41
2023-05-19T10:40:35.992Z,994.47
2023-05-19T10:41:34.186Z,994.43
2023-05-19T10:42:34.129Z,994.40
2023-05-19T10:43:34.148Z,994.36
2023-05-19T10:44:34.093Z,994.36
2023-05-19T10:45:34.389Z,994.41
2023-05-19T10:46:34.142Z,994.36
2023-05-19T10:47:34.214Z,994.36
2023-05-19T10:48:34.064Z,994.40
2023-05-19T10:49:34.051Z,994.40
2023-05-19T10:50:34.073Z,994.36
2023-05-19T10:51:34.054Z,994.35
2023-05-19T10:52:34.107Z,994.31
2023-05-19T10:53:34.120Z,994.35
2023-05-19T10:54:34.004Z,994.32
2023-05-19T10:55:34.161Z,994.23
2023-05-19T10:56:34.049Z,994.27
2023-05-19T10:57:33.970Z,994.25
2023-05-19T10:58:35.710Z,994.27
2023-05-19T10:59:34.026Z,994.23
2023-05-19T11:00:33.957Z,994.19
2023-05-19T11:01:34.086Z,994.23
2023-05-19T11:02:33.939Z,994.19
2023-05-19T11:03:33.926Z,994.20
2023-05-19T11:04:33.990Z,994.20
2023-05-19T11:05:36.498Z,994.13
2023-05-19T11:06:35.498Z,994.14
2023-05-19T11:07:33.875Z,994.10
2023-05-19T11:08:33.877Z,994.06
2023-05-19T11:09:39.992Z,994.06
2023-05-19T11:10:35.498Z,994.09
2023-05-19T11:11:35.503Z,994.10
2023-05-19T11:12:34.506Z,994.09
2023-05-19T11:13:33.824Z,994.08
2023-05-19T11:14:33.798Z,994.15
2023-05-19T11:15:34.061Z,994.16
2023-05-19T11:16:33.806Z,994.22
2023-05-19T11:17:35.014Z,994.13
2023-05-19T11:18:35.560Z,994.07
2023-05-19T11:19:35.515Z,994.10
2023-05-19T11:20:33.766Z,994.14
2023-05-19T11:21:33.737Z,994.06
2023-05-19T11:22:33.698Z,994.10
2023-05-19T11:23:35.390Z,994.13
2023-05-19T11:24:35.548Z,994.20
2023-05-19T11:25:34.535Z,994.21
2023-05-19T11:26:33.654Z,994.19
2023-05-19T11:27:33.689Z,994.15
2023-05-19T11:28:33.647Z,994.13
2023-05-19T11:29:34.830Z,994.08
2023-05-19T11:30:33.608Z,994.09
2023-05-19T11:31:35.111Z,994.06
2023-05-19T11:32:35.093Z,994.09
2023-05-19T11:33:33.607Z,994.07
2023-05-19T11:34:33.569Z,994.09
2023-05-19T11:35:35.398Z,994.12
2023-05-19T11:36:33.558Z,994.05
2023-05-19T11:37:35.015Z,994.02
2023-05-19T11:38:35.005Z,993.99
2023-05-19T11:39:33.524Z,993.98
2023-05-19T11:40:33.517Z,993.96
2023-05-19T11:41:33.495Z,993.94
2023-05-19T11:42:33.551Z,993.95
2023-05-19T11:43:33.490Z,994.01
2023-05-19T11:44:34.041Z,993.94
2023-05-19T11:45:33.741Z,993.97
2023-05-19T11:46:33.482Z,993.99
2023-05-19T11:47:42.028Z,994.01
2023-05-19T11:48:34.426Z,994.02
2023-05-19T11:49:33.448Z,993.97
2023-05-19T11:50:35.013Z,993.92
2023-05-19T11:51:34.022Z,993.93
2023-05-19T11:52:33.394Z,993.92
2023-05-19T11:53:35.144Z,993.91
2023-05-19T11:54:33.353Z,993.86
2023-05-19T11:55:33.375Z,993.85
2023-05-19T11:56:33.409Z,993.91
2023-05-19T11:57:33.382Z,993.80
2023-05-19T11:58:34.048Z,993.77
2023-05-19T11:59:34.981Z,993.82
2023-05-19T12:00:33.302Z,993.83
2023-05-19T12:01:33.311Z,993.81
2023-05-19T12:02:33.387Z,993.83
2023-05-19T12:03:34.677Z,993.80
2023-05-19T12:04:34.067Z,993.75
2023-05-19T12:05:36.640Z,993.75
2023-05-19T12:06:34.371Z,993.73
2023-05-19T12:07:33.221Z,993.71
2023-05-19T12:08:33.199Z,993.68
2023-05-19T12:09:34.027Z,993.77
2023-05-19T12:10:33.187Z,993.74
2023-05-19T12:11:33.227Z,993.71
2023-05-19T12:12:33.173Z,993.72
2023-05-19T12:13:33.160Z,993.70
2023-05-19T12:14:33.156Z,993.74
2023-05-19T12:15:33.413Z,993.68
2023-05-19T12:16:34.618Z,993.68
2023-05-19T12:17:34.047Z,993.71
2023-05-19T12:18:33.103Z,993.64
2023-05-19T12:19:33.139Z,993.68
2023-05-19T12:20:33.112Z,993.66
2023-05-19T12:21:34.293Z,993.59
2023-05-19T12:22:34.024Z,993.60
2023-05-19T12:23:33.041Z,993.56
2023-05-19T12:24:33.063Z,993.57
2023-05-19T12:25:33.264Z,993.56
2023-05-19T12:26:33.016Z,993.61
2023-05-19T12:27:34.746Z,993.55
2023-05-19T12:28:33.019Z,993.52
2023-05-19T12:29:34.124Z,993.50
2023-05-19T12:30:33.910Z,993.48